sensor_id;sensor_type;location;lat;lon;timestamp;pressure;altitude;pressure_sealevel;temperature;humidity
45350;BME280;31086;51.702;-1.106;2022-08-01T00:02:26;101152.64;;;21.61;49.81
45350;BME280;31086;51.702;-1.106;2022-08-01T00:04:54;101145.91;;;21.48;49.92
45350;BME280;31086;51.702;-1.106;2022-08-01T00:07:21;101140.97;;;21.23;50.40
45350;BME280;31086;51.702;-1.106;2022-08-01T00:09:48;101139.26;;;21.37;50.05
45350;BME280;31086;51.702;-1.106;2022-08-01T00:12:16;101140.22;;;21.38;49.92
45350;BME280;31086;51.702;-1.106;2022-08-01T00:14:43;101140.00;;;21.12;50.32
45350;BME280;31086;51.702;-1.106;2022-08-01T00:17:10;101142.48;;;21.40;49.97
45350;BME280;31086;51.702;-1.106;2022-08-01T00:19:37;101139.43;;;21.02;49.99
45350;BME280;31086;51.702;-1.106;2022-08-01T00:22:04;101140.23;;;20.99;50.14
45350;BME280;31086;51.702;-1.106;2022-08-01T00:24:31;101142.80;;;21.15;49.81
45350;BME280;31086;51.702;-1.106;2022-08-01T00:26:59;101141.51;;;21.24;49.51
45350;BME280;31086;51.702;-1.106;2022-08-01T00:29:27;101145.35;;;21.05;50.23
45350;BME280;31086;51.702;-1.106;2022-08-01T00:31:54;101145.55;;;21.58;49.80
45350;BME280;31086;51.702;-1.106;2022-08-01T00:34:21;101149.41;;;21.44;49.92
45350;BME280;31086;51.702;-1.106;2022-08-01T00:36:48;101150.39;;;21.57;49.46
45350;BME280;31086;51.702;-1.106;2022-08-01T00:39:15;101150.09;;;21.61;49.54
45350;BME280;31086;51.702;-1.106;2022-08-01T00:41:42;101152.51;;;21.36;49.50
45350;BME280;31086;51.702;-1.106;2022-08-01T00:44:09;101153.98;;;20.76;50.08
45350;BME280;31086;51.702;-1.106;2022-08-01T00:46:36;101159.18;;;21.31;49.78
45350;BME280;31086;51.702;-1.106;2022-08-01T00:49:04;101158.49;;;21.15;49.77
45350;BME280;31086;51.702;-1.106;2022-08-01T00:51:31;101158.52;;;21.60;49.84
45350;BME280;31086;51.702;-1.106;2022-08-01T00:53:58;101161.39;;;21.48;49.76
45350;BME280;31086;51.702;-1.106;2022-08-01T00:56:27;101161.75;;;21.34;49.64
45350;BME280;31086;51.702;-1.106;2022-08-01T00:58:55;101163.08;;;21.70;49.38
45350;BME280;31086;51.702;-1.106;2022-08-01T01:01:22;101156.02;;;21.08;49.87
45350;BME280;31086;51.702;-1.106;2022-08-01T01:03:52;101156.85;;;21.64;49.55
45350;BME280;31086;51.702;-1.106;2022-08-01T01:06:26;101157.17;;;21.54;49.73
45350;BME280;31086;51.702;-1.106;2022-08-01T01:09:04;101157.38;;;21.75;49.36
45350;BME280;31086;51.702;-1.106;2022-08-01T01:11:44;101155.59;;;21.17;49.86
45350;BME280;31086;51.702;-1.106;2022-08-01T01:14:21;101154.73;;;21.40;50.18
45350;BME280;31086;51.702;-1.106;2022-08-01T01:16:51;101160.12;;;20.86;50.11
45350;BME280;31086;51.702;-1.106;2022-08-01T01:19:24;101161.15;;;20.90;50.72
45350;BME280;31086;51.702;-1.106;2022-08-01T01:22:41;101166.89;;;20.75;50.69
45350;BME280;31086;51.702;-1.106;2022-08-01T01:26:31;101167.64;;;20.82;50.77
45350;BME280;31086;51.702;-1.106;2022-08-01T01:29:08;101166.86;;;21.12;50.21
45350;BME280;31086;51.702;-1.106;2022-08-01T01:31:44;101166.90;;;20.50;50.36
45350;BME280;31086;51.702;-1.106;2022-08-01T01:34:15;101161.97;;;21.25;50.02
45350;BME280;31086;51.702;-1.106;2022-08-01T01:36:43;101160.62;;;21.08;49.72
45350;BME280;31086;51.702;-1.106;2022-08-01T01:39:14;101162.72;;;21.32;49.82
45350;BME280;31086;51.702;-1.106;2022-08-01T01:41:43;101166.87;;;20.95;50.13
45350;BME280;31086;51.702;-1.106;2022-08-01T01:44:13;101160.79;;;21.07;49.96
45350;BME280;31086;51.702;-1.106;2022-08-01T01:46:42;101159.20;;;20.95;50.07
45350;BME280;31086;51.702;-1.106;2022-08-01T01:49:11;101157.78;;;21.11;50.08
45350;BME280;31086;51.702;-1.106;2022-08-01T01:51:39;101153.23;;;20.90;50.14
45350;BME280;31086;51.702;-1.106;2022-08-01T01:54:08;101152.19;;;20.72;50.49
45350;BME280;31086;51.702;-1.106;2022-08-01T01:56:37;101153.21;;;20.24;50.94
45350;BME280;31086;51.702;-1.106;2022-08-01T01:59:06;101150.20;;;20.60;50.45
45350;BME280;31086;51.702;-1.106;2022-08-01T02:01:35;101146.48;;;20.70;50.12
45350;BME280;31086;51.702;-1.106;2022-08-01T02:04:03;101140.82;;;20.97;49.81
45350;BME280;31086;51.702;-1.106;2022-08-01T02:06:31;101144.61;;;20.78;49.88
45350;BME280;31086;51.702;-1.106;2022-08-01T02:09:01;101145.27;;;20.93;49.80
45350;BME280;31086;51.702;-1.106;2022-08-01T02:11:28;101144.87;;;20.91;49.69
45350;BME280;31086;51.702;-1.106;2022-08-01T02:13:59;101140.59;;;20.70;49.91
45350;BME280;31086;51.702;-1.106;2022-08-01T02:16:29;101140.34;;;20.27;50.13
45350;BME280;31086;51.702;-1.106;2022-08-01T02:18:59;101139.48;;;20.86;49.48
45350;BME280;31086;51.702;-1.106;2022-08-01T02:21:29;101141.51;;;20.86;49.13
45350;BME280;31086;51.702;-1.106;2022-08-01T02:24:03;101141.63;;;20.52;49.47
45350;BME280;31086;51.702;-1.106;2022-08-01T02:26:36;101146.19;;;20.16;49.91
45350;BME280;31086;51.702;-1.106;2022-08-01T02:29:07;101147.79;;;20.33;49.66
45350;BME280;31086;51.702;-1.106;2022-08-01T02:31:40;101145.58;;;20.38;49.56
45350;BME280;31086;51.702;-1.106;2022-08-01T02:34:11;101143.92;;;20.48;49.27
45350;BME280;31086;51.702;-1.106;2022-08-01T02:36:40;101141.52;;;20.48;49.23
45350;BME280;31086;51.702;-1.106;2022-08-01T02:39:10;101140.90;;;20.13;49.59
45350;BME280;31086;51.702;-1.106;2022-08-01T02:41:40;101140.06;;;20.23;49.19
45350;BME280;31086;51.702;-1.106;2022-08-01T02:44:10;101140.03;;;20.59;48.77
45350;BME280;31086;51.702;-1.106;2022-08-01T02:46:48;101139.65;;;20.55;48.79
45350;BME280;31086;51.702;-1.106;2022-08-01T02:49:16;101137.04;;;20.05;49.59
45350;BME280;31086;51.702;-1.106;2022-08-01T02:51:46;101137.87;;;20.59;49.11
45350;BME280;31086;51.702;-1.106;2022-08-01T02:54:15;101135.39;;;20.07;49.36
45350;BME280;31086;51.702;-1.106;2022-08-01T02:56:44;101137.51;;;19.94;48.78
45350;BME280;31086;51.702;-1.106;2022-08-01T02:59:15;101137.31;;;20.35;48.87
45350;BME280;31086;51.702;-1.106;2022-08-01T03:01:44;101134.71;;;19.70;48.55
45350;BME280;31086;51.702;-1.106;2022-08-01T03:04:13;101135.69;;;19.94;48.78
45350;BME280;31086;51.702;-1.106;2022-08-01T03:06:41;101140.80;;;20.02;48.59
45350;BME280;31086;51.702;-1.106;2022-08-01T03:09:10;101141.97;;;19.70;48.34
45350;BME280;31086;51.702;-1.106;2022-08-01T03:11:41;101144.99;;;19.27;48.69
45350;BME280;31086;51.702;-1.106;2022-08-01T03:14:10;101146.00;;;19.36;48.57
45350;BME280;31086;51.702;-1.106;2022-08-01T03:16:41;101145.47;;;19.35;48.71
45350;BME280;31086;51.702;-1.106;2022-08-01T03:19:11;101140.76;;;19.37;48.91
45350;BME280;31086;51.702;-1.106;2022-08-01T03:21:39;101138.99;;;18.95;48.68
45350;BME280;31086;51.702;-1.106;2022-08-01T03:24:09;101139.89;;;19.26;48.94
45350;BME280;31086;51.702;-1.106;2022-08-01T03:26:39;101138.85;;;19.34;48.93
45350;BME280;31086;51.702;-1.106;2022-08-01T03:29:14;101140.07;;;19.80;48.22
45350;BME280;31086;51.702;-1.106;2022-08-01T03:31:44;101136.11;;;19.16;48.37
45350;BME280;31086;51.702;-1.106;2022-08-01T03:34:12;101136.56;;;19.75;48.09
45350;BME280;31086;51.702;-1.106;2022-08-01T03:36:46;101134.18;;;19.59;48.25
45350;BME280;31086;51.702;-1.106;2022-08-01T03:39:16;101133.11;;;19.64;48.51
45350;BME280;31086;51.702;-1.106;2022-08-01T03:41:48;101142.34;;;19.24;49.07
45350;BME280;31086;51.702;-1.106;2022-08-01T03:44:22;101137.65;;;19.85;48.24
45350;BME280;31086;51.702;-1.106;2022-08-01T03:46:58;101134.88;;;19.61;48.55
45350;BME280;31086;51.702;-1.106;2022-08-01T03:49:30;101131.13;;;19.98;48.06
45350;BME280;31086;51.702;-1.106;2022-08-01T03:52:01;101136.90;;;19.78;48.07
45350;BME280;31086;51.702;-1.106;2022-08-01T03:54:31;101141.62;;;19.34;48.17
45350;BME280;31086;51.702;-1.106;2022-08-01T03:57:00;101142.23;;;19.50;48.46
45350;BME280;31086;51.702;-1.106;2022-08-01T03:59:27;101140.09;;;19.72;48.21
45350;BME280;31086;51.702;-1.106;2022-08-01T04:01:56;101140.99;;;19.49;48.16
45350;BME280;31086;51.702;-1.106;2022-08-01T04:04:24;101147.24;;;19.73;48.40
45350;BME280;31086;51.702;-1.106;2022-08-01T04:06:52;101153.85;;;18.99;48.56
45350;BME280;31086;51.702;-1.106;2022-08-01T04:09:19;101156.77;;;19.14;48.47
45350;BME280;31086;51.702;-1.106;2022-08-01T04:11:47;101154.55;;;18.88;49.10
45350;BME280;31086;51.702;-1.106;2022-08-01T04:14:14;101155.01;;;19.11;49.40
45350;BME280;31086;51.702;-1.106;2022-08-01T04:16:41;101150.40;;;18.70;49.74
45350;BME280;31086;51.702;-1.106;2022-08-01T04:19:09;101151.92;;;18.67;49.65
45350;BME280;31086;51.702;-1.106;2022-08-01T04:21:36;101149.09;;;18.58;50.09
45350;BME280;31086;51.702;-1.106;2022-08-01T04:24:09;101147.22;;;18.84;49.52
45350;BME280;31086;51.702;-1.106;2022-08-01T04:26:38;101140.37;;;19.10;49.31
45350;BME280;31086;51.702;-1.106;2022-08-01T04:29:08;101134.24;;;19.39;49.10
45350;BME280;31086;51.702;-1.106;2022-08-01T04:31:37;101133.78;;;18.80;49.49
45350;BME280;31086;51.702;-1.106;2022-08-01T04:34:06;101134.50;;;19.19;49.19
45350;BME280;31086;51.702;-1.106;2022-08-01T04:36:36;101129.86;;;19.77;48.39
45350;BME280;31086;51.702;-1.106;2022-08-01T04:39:04;101135.63;;;19.59;48.60
45350;BME280;31086;51.702;-1.106;2022-08-01T04:41:33;101136.04;;;19.72;48.62
45350;BME280;31086;51.702;-1.106;2022-08-01T04:44:01;101138.31;;;19.67;48.54
45350;BME280;31086;51.702;-1.106;2022-08-01T04:46:28;101139.09;;;19.45;48.95
45350;BME280;31086;51.702;-1.106;2022-08-01T04:48:56;101142.64;;;19.53;48.94
45350;BME280;31086;51.702;-1.106;2022-08-01T04:51:24;101149.65;;;19.33;49.21
45350;BME280;31086;51.702;-1.106;2022-08-01T04:53:51;101152.36;;;19.06;49.52
45350;BME280;31086;51.702;-1.106;2022-08-01T04:56:19;101159.84;;;19.29;49.33
45350;BME280;31086;51.702;-1.106;2022-08-01T04:58:47;101163.23;;;19.54;49.07
45350;BME280;31086;51.702;-1.106;2022-08-01T05:01:14;101170.87;;;19.21;49.51
45350;BME280;31086;51.702;-1.106;2022-08-01T05:03:41;101170.63;;;18.81;49.84
45350;BME280;31086;51.702;-1.106;2022-08-01T05:06:08;101176.66;;;18.87;49.94
45350;BME280;31086;51.702;-1.106;2022-08-01T05:08:36;101180.30;;;19.00;50.14
45350;BME280;31086;51.702;-1.106;2022-08-01T05:11:03;101184.97;;;18.59;50.44
45350;BME280;31086;51.702;-1.106;2022-08-01T05:13:30;101186.38;;;19.01;50.14
45350;BME280;31086;51.702;-1.106;2022-08-01T05:15:57;101183.49;;;18.87;50.26
45350;BME280;31086;51.702;-1.106;2022-08-01T05:18:25;101180.50;;;19.09;49.65
45350;BME280;31086;51.702;-1.106;2022-08-01T05:20:52;101175.84;;;19.52;49.46
45350;BME280;31086;51.702;-1.106;2022-08-01T05:23:19;101174.44;;;19.04;49.46
45350;BME280;31086;51.702;-1.106;2022-08-01T05:25:46;101176.91;;;19.45;48.77
45350;BME280;31086;51.702;-1.106;2022-08-01T05:28:13;101175.83;;;19.56;48.88
45350;BME280;31086;51.702;-1.106;2022-08-01T05:30:40;101174.06;;;19.25;48.96
45350;BME280;31086;51.702;-1.106;2022-08-01T05:33:07;101167.35;;;19.10;49.53
45350;BME280;31086;51.702;-1.106;2022-08-01T05:35:35;101165.91;;;19.19;49.46
45350;BME280;31086;51.702;-1.106;2022-08-01T05:38:03;101166.50;;;19.07;49.40
45350;BME280;31086;51.702;-1.106;2022-08-01T05:40:30;101164.70;;;19.37;49.00
45350;BME280;31086;51.702;-1.106;2022-08-01T05:42:57;101165.82;;;19.17;49.23
45350;BME280;31086;51.702;-1.106;2022-08-01T05:45:24;101167.80;;;18.78;49.69
45350;BME280;31086;51.702;-1.106;2022-08-01T05:47:51;101169.41;;;19.14;49.37
45350;BME280;31086;51.702;-1.106;2022-08-01T05:50:18;101170.65;;;19.39;49.13
45350;BME280;31086;51.702;-1.106;2022-08-01T05:52:46;101169.45;;;19.21;48.79
45350;BME280;31086;51.702;-1.106;2022-08-01T05:55:13;101170.92;;;18.94;49.68
45350;BME280;31086;51.702;-1.106;2022-08-01T05:57:40;101172.54;;;19.11;49.09
45350;BME280;31086;51.702;-1.106;2022-08-01T06:00:09;101172.55;;;19.33;49.21
45350;BME280;31086;51.702;-1.106;2022-08-01T06:02:40;101174.65;;;19.30;48.76
45350;BME280;31086;51.702;-1.106;2022-08-01T06:05:08;101173.31;;;19.51;48.74
45350;BME280;31086;51.702;-1.106;2022-08-01T06:07:36;101173.09;;;19.47;48.77
45350;BME280;31086;51.702;-1.106;2022-08-01T06:10:04;101177.18;;;19.55;48.42
45350;BME280;31086;51.702;-1.106;2022-08-01T06:12:32;101180.80;;;19.26;48.59
45350;BME280;31086;51.702;-1.106;2022-08-01T06:15:00;101188.51;;;19.36;48.87
45350;BME280;31086;51.702;-1.106;2022-08-01T06:17:27;101192.43;;;19.00;49.17
45350;BME280;31086;51.702;-1.106;2022-08-01T06:19:54;101195.02;;;18.41;49.97
45350;BME280;31086;51.702;-1.106;2022-08-01T06:22:21;101205.06;;;18.96;49.32
45350;BME280;31086;51.702;-1.106;2022-08-01T06:24:49;101203.14;;;18.99;48.98
45350;BME280;31086;51.702;-1.106;2022-08-01T06:27:16;101202.19;;;19.23;48.55
45350;BME280;31086;51.702;-1.106;2022-08-01T06:29:43;101206.15;;;19.31;48.42
45350;BME280;31086;51.702;-1.106;2022-08-01T06:32:10;101209.81;;;19.08;48.39
45350;BME280;31086;51.702;-1.106;2022-08-01T06:34:38;101206.78;;;18.91;48.71
45350;BME280;31086;51.702;-1.106;2022-08-01T06:37:05;101200.86;;;18.99;48.66
45350;BME280;31086;51.702;-1.106;2022-08-01T06:39:32;101199.63;;;19.65;48.76
45350;BME280;31086;51.702;-1.106;2022-08-01T06:41:59;101201.16;;;19.57;48.11
45350;BME280;31086;51.702;-1.106;2022-08-01T06:44:27;101203.24;;;19.49;48.21
45350;BME280;31086;51.702;-1.106;2022-08-01T06:46:54;101206.83;;;19.64;48.27
45350;BME280;31086;51.702;-1.106;2022-08-01T06:49:21;101206.40;;;19.58;48.41
45350;BME280;31086;51.702;-1.106;2022-08-01T06:51:48;101203.41;;;19.36;48.01
45350;BME280;31086;51.702;-1.106;2022-08-01T06:54:15;101206.33;;;19.50;48.01
45350;BME280;31086;51.702;-1.106;2022-08-01T06:56:43;101206.95;;;19.41;47.86
45350;BME280;31086;51.702;-1.106;2022-08-01T06:59:10;101210.52;;;19.35;47.95
45350;BME280;31086;51.702;-1.106;2022-08-01T07:01:38;101210.92;;;19.55;47.73
45350;BME280;31086;51.702;-1.106;2022-08-01T07:04:05;101208.40;;;19.27;48.12
45350;BME280;31086;51.702;-1.106;2022-08-01T07:06:32;101208.98;;;19.34;48.04
45350;BME280;31086;51.702;-1.106;2022-08-01T07:08:59;101202.53;;;19.51;47.86
45350;BME280;31086;51.702;-1.106;2022-08-01T07:11:26;101205.41;;;19.57;48.53
45350;BME280;31086;51.702;-1.106;2022-08-01T07:13:53;101203.04;;;19.87;47.86
45350;BME280;31086;51.702;-1.106;2022-08-01T07:16:20;101203.43;;;20.08;47.49
45350;BME280;31086;51.702;-1.106;2022-08-01T07:18:48;101208.82;;;19.23;48.14
45350;BME280;31086;51.702;-1.106;2022-08-01T07:21:15;101214.90;;;19.64;48.30
45350;BME280;31086;51.702;-1.106;2022-08-01T07:23:42;101213.21;;;19.90;47.36
45350;BME280;31086;51.702;-1.106;2022-08-01T07:26:10;101215.57;;;20.04;47.62
45350;BME280;31086;51.702;-1.106;2022-08-01T07:28:37;101219.32;;;19.65;48.08
45350;BME280;31086;51.702;-1.106;2022-08-01T07:31:05;101220.65;;;19.96;47.92
45350;BME280;31086;51.702;-1.106;2022-08-01T07:33:32;101221.12;;;19.56;47.86
45350;BME280;31086;51.702;-1.106;2022-08-01T07:35:59;101224.06;;;19.87;47.76
45350;BME280;31086;51.702;-1.106;2022-08-01T07:38:26;101228.24;;;19.92;47.76
45350;BME280;31086;51.702;-1.106;2022-08-01T07:40:53;101231.62;;;19.79;47.31
45350;BME280;31086;51.702;-1.106;2022-08-01T07:43:20;101232.01;;;19.55;47.95
45350;BME280;31086;51.702;-1.106;2022-08-01T07:45:47;101233.07;;;19.65;47.42
45350;BME280;31086;51.702;-1.106;2022-08-01T07:48:15;101234.30;;;19.59;47.57
45350;BME280;31086;51.702;-1.106;2022-08-01T07:50:42;101237.52;;;18.99;48.02
45350;BME280;31086;51.702;-1.106;2022-08-01T07:53:09;101234.49;;;19.27;47.62
45350;BME280;31086;51.702;-1.106;2022-08-01T07:55:36;101238.86;;;19.18;47.44
45350;BME280;31086;51.702;-1.106;2022-08-01T07:58:03;101235.44;;;19.83;46.96
45350;BME280;31086;51.702;-1.106;2022-08-01T08:00:30;101235.12;;;19.61;46.77
45350;BME280;31086;51.702;-1.106;2022-08-01T08:02:58;101231.31;;;19.73;46.24
45350;BME280;31086;51.702;-1.106;2022-08-01T08:05:25;101235.34;;;20.06;46.59
45350;BME280;31086;51.702;-1.106;2022-08-01T08:07:53;101239.86;;;19.92;45.94
45350;BME280;31086;51.702;-1.106;2022-08-01T08:10:20;101239.63;;;20.02;46.04
45350;BME280;31086;51.702;-1.106;2022-08-01T08:12:47;101241.33;;;20.14;45.59
45350;BME280;31086;51.702;-1.106;2022-08-01T08:15:15;101241.84;;;20.59;45.66
45350;BME280;31086;51.702;-1.106;2022-08-01T08:17:42;101239.91;;;20.56;45.26
45350;BME280;31086;51.702;-1.106;2022-08-01T08:20:09;101239.27;;;20.75;45.15
45350;BME280;31086;51.702;-1.106;2022-08-01T08:22:37;101240.53;;;20.85;44.86
45350;BME280;31086;51.702;-1.106;2022-08-01T08:25:05;101238.91;;;20.48;45.19
45350;BME280;31086;51.702;-1.106;2022-08-01T08:27:33;101236.24;;;20.68;45.45
45350;BME280;31086;51.702;-1.106;2022-08-01T08:30:00;101237.01;;;20.43;45.54
45350;BME280;31086;51.702;-1.106;2022-08-01T08:32:28;101232.41;;;21.06;44.90
45350;BME280;31086;51.702;-1.106;2022-08-01T08:34:55;101227.88;;;21.17;45.22
45350;BME280;31086;51.702;-1.106;2022-08-01T08:37:22;101226.29;;;21.35;44.77
45350;BME280;31086;51.702;-1.106;2022-08-01T08:39:49;101228.53;;;21.22;45.22
45350;BME280;31086;51.702;-1.106;2022-08-01T08:42:16;101226.42;;;21.36;44.13
45350;BME280;31086;51.702;-1.106;2022-08-01T08:44:45;101224.77;;;20.79;44.63
45350;BME280;31086;51.702;-1.106;2022-08-01T08:47:13;101227.14;;;21.19;44.62
45350;BME280;31086;51.702;-1.106;2022-08-01T08:49:43;101222.43;;;20.85;44.31
45350;BME280;31086;51.702;-1.106;2022-08-01T08:52:11;101220.63;;;21.02;44.73
45350;BME280;31086;51.702;-1.106;2022-08-01T08:54:41;101219.73;;;21.12;44.80
45350;BME280;31086;51.702;-1.106;2022-08-01T08:57:11;101217.02;;;20.99;44.27
45350;BME280;31086;51.702;-1.106;2022-08-01T08:59:40;101217.03;;;21.10;44.09
45350;BME280;31086;51.702;-1.106;2022-08-01T09:02:08;101218.87;;;21.65;44.40
45350;BME280;31086;51.702;-1.106;2022-08-01T09:04:37;101223.16;;;20.43;45.44
45350;BME280;31086;51.702;-1.106;2022-08-01T09:07:04;101220.91;;;21.32;44.61
45350;BME280;31086;51.702;-1.106;2022-08-01T09:09:32;101220.33;;;21.89;44.66
45350;BME280;31086;51.702;-1.106;2022-08-01T09:11:59;101223.32;;;21.98;44.14
45350;BME280;31086;51.702;-1.106;2022-08-01T09:14:27;101221.49;;;22.11;44.08
45350;BME280;31086;51.702;-1.106;2022-08-01T09:17:03;101225.65;;;22.43;43.14
45350;BME280;31086;51.702;-1.106;2022-08-01T09:19:41;101226.16;;;22.38;42.73
45350;BME280;31086;51.702;-1.106;2022-08-01T09:22:10;101229.59;;;21.95;42.91
45350;BME280;31086;51.702;-1.106;2022-08-01T09:24:38;101226.74;;;22.17;42.54
45350;BME280;31086;51.702;-1.106;2022-08-01T09:27:18;101225.28;;;22.11;42.64
45350;BME280;31086;51.702;-1.106;2022-08-01T09:29:45;101224.87;;;21.85;42.91
45350;BME280;31086;51.702;-1.106;2022-08-01T09:32:12;101230.08;;;21.97;42.16
45350;BME280;31086;51.702;-1.106;2022-08-01T09:34:40;101228.22;;;21.98;42.59
45350;BME280;31086;51.702;-1.106;2022-08-01T09:37:07;101223.70;;;22.26;42.66
45350;BME280;31086;51.702;-1.106;2022-08-01T09:39:36;101221.76;;;22.92;41.75
45350;BME280;31086;51.702;-1.106;2022-08-01T09:42:20;101223.94;;;22.73;42.57
45350;BME280;31086;51.702;-1.106;2022-08-01T09:44:48;101225.62;;;22.71;42.16
45350;BME280;31086;51.702;-1.106;2022-08-01T09:47:16;101224.92;;;22.52;42.43
45350;BME280;31086;51.702;-1.106;2022-08-01T09:49:44;101222.93;;;22.86;41.80
45350;BME280;31086;51.702;-1.106;2022-08-01T09:52:14;101221.95;;;22.65;42.31
45350;BME280;31086;51.702;-1.106;2022-08-01T09:54:43;101223.06;;;22.58;42.56
45350;BME280;31086;51.702;-1.106;2022-08-01T09:57:19;101220.86;;;22.12;43.01
45350;BME280;31086;51.702;-1.106;2022-08-01T09:59:48;101218.46;;;23.24;42.73
45350;BME280;31086;51.702;-1.106;2022-08-01T10:02:28;101219.01;;;23.26;43.01
45350;BME280;31086;51.702;-1.106;2022-08-01T10:04:56;101223.31;;;23.26;42.46
45350;BME280;31086;51.702;-1.106;2022-08-01T10:07:23;101226.79;;;23.81;42.39
45350;BME280;31086;51.702;-1.106;2022-08-01T10:09:50;101231.52;;;23.33;43.36
45350;BME280;31086;51.702;-1.106;2022-08-01T10:12:19;101229.51;;;23.23;42.85
45350;BME280;31086;51.702;-1.106;2022-08-01T10:14:48;101227.72;;;23.59;42.07
45350;BME280;31086;51.702;-1.106;2022-08-01T10:17:17;101222.44;;;23.22;43.67
45350;BME280;31086;51.702;-1.106;2022-08-01T10:19:46;101221.54;;;23.28;44.32
45350;BME280;31086;51.702;-1.106;2022-08-01T10:22:16;101215.30;;;23.59;43.72
45350;BME280;31086;51.702;-1.106;2022-08-01T10:24:47;101215.32;;;23.57;44.09
45350;BME280;31086;51.702;-1.106;2022-08-01T10:27:16;101210.10;;;23.66;43.73
45350;BME280;31086;51.702;-1.106;2022-08-01T10:29:51;101220.66;;;23.55;44.46
45350;BME280;31086;51.702;-1.106;2022-08-01T10:32:20;101217.38;;;23.88;42.55
45350;BME280;31086;51.702;-1.106;2022-08-01T10:34:49;101215.35;;;23.09;44.37
45350;BME280;31086;51.702;-1.106;2022-08-01T10:37:16;101209.56;;;24.25;43.76
45350;BME280;31086;51.702;-1.106;2022-08-01T10:39:44;101214.87;;;23.73;43.71
45350;BME280;31086;51.702;-1.106;2022-08-01T10:42:11;101212.89;;;23.45;43.76
45350;BME280;31086;51.702;-1.106;2022-08-01T10:44:39;101217.58;;;23.95;44.66
45350;BME280;31086;51.702;-1.106;2022-08-01T10:47:09;101212.68;;;24.12;43.71
45350;BME280;31086;51.702;-1.106;2022-08-01T10:49:43;101209.55;;;23.81;44.22
45350;BME280;31086;51.702;-1.106;2022-08-01T10:52:14;101207.13;;;23.97;43.86
45350;BME280;31086;51.702;-1.106;2022-08-01T10:54:41;101206.78;;;23.83;43.72
45350;BME280;31086;51.702;-1.106;2022-08-01T10:57:09;101204.37;;;23.83;43.47
45350;BME280;31086;51.702;-1.106;2022-08-01T10:59:48;101206.56;;;23.97;43.81
45350;BME280;31086;51.702;-1.106;2022-08-01T11:02:27;101206.14;;;23.97;44.37
45350;BME280;31086;51.702;-1.106;2022-08-01T11:04:58;101204.00;;;23.71;44.43
45350;BME280;31086;51.702;-1.106;2022-08-01T11:07:42;101208.09;;;24.37;43.62
45350;BME280;31086;51.702;-1.106;2022-08-01T11:10:23;101203.86;;;24.59;43.63
45350;BME280;31086;51.702;-1.106;2022-08-01T11:12:52;101204.70;;;24.38;43.35
45350;BME280;31086;51.702;-1.106;2022-08-01T11:15:21;101197.44;;;24.78;43.76
45350;BME280;31086;51.702;-1.106;2022-08-01T11:17:49;101196.63;;;24.50;43.12
45350;BME280;31086;51.702;-1.106;2022-08-01T11:20:17;101192.60;;;25.44;42.56
45350;BME280;31086;51.702;-1.106;2022-08-01T11:23:18;101192.22;;;25.22;42.80
45350;BME280;31086;51.702;-1.106;2022-08-01T11:26:22;101193.08;;;24.47;43.19
45350;BME280;31086;51.702;-1.106;2022-08-01T11:29:13;101188.90;;;24.54;43.72
45350;BME280;31086;51.702;-1.106;2022-08-01T11:31:40;101185.19;;;24.34;43.73
45350;BME280;31086;51.702;-1.106;2022-08-01T11:34:07;101184.98;;;24.56;43.48
45350;BME280;31086;51.702;-1.106;2022-08-01T11:36:35;101179.53;;;24.97;43.13
45350;BME280;31086;51.702;-1.106;2022-08-01T11:39:19;101178.04;;;24.90;42.89
45350;BME280;31086;51.702;-1.106;2022-08-01T11:41:47;101180.31;;;24.77;44.16
45350;BME280;31086;51.702;-1.106;2022-08-01T11:44:17;101179.61;;;24.16;44.62
45350;BME280;31086;51.702;-1.106;2022-08-01T11:46:52;101175.52;;;23.87;45.06
45350;BME280;31086;51.702;-1.106;2022-08-01T11:49:25;101178.91;;;24.26;44.56
45350;BME280;31086;51.702;-1.106;2022-08-01T11:52:03;101174.42;;;24.54;44.44
45350;BME280;31086;51.702;-1.106;2022-08-01T11:54:33;101175.84;;;23.62;45.67
45350;BME280;31086;51.702;-1.106;2022-08-01T11:57:03;101179.27;;;23.46;45.81
45350;BME280;31086;51.702;-1.106;2022-08-01T11:59:37;101174.15;;;24.72;44.07
45350;BME280;31086;51.702;-1.106;2022-08-01T12:02:16;101174.72;;;24.53;44.31
45350;BME280;31086;51.702;-1.106;2022-08-01T12:04:45;101169.04;;;24.92;44.09
45350;BME280;31086;51.702;-1.106;2022-08-01T12:07:13;101168.12;;;24.44;45.22
45350;BME280;31086;51.702;-1.106;2022-08-01T12:09:41;101164.76;;;24.24;45.75
45350;BME280;31086;51.702;-1.106;2022-08-01T12:12:09;101165.50;;;24.24;45.26
45350;BME280;31086;51.702;-1.106;2022-08-01T12:14:37;101151.60;;;24.86;44.74
45350;BME280;31086;51.702;-1.106;2022-08-01T12:17:05;101152.62;;;24.19;45.04
45350;BME280;31086;51.702;-1.106;2022-08-01T12:19:33;101146.49;;;25.64;43.58
45350;BME280;31086;51.702;-1.106;2022-08-01T12:22:10;101140.07;;;25.11;44.03
45350;BME280;31086;51.702;-1.106;2022-08-01T12:24:41;101141.91;;;25.02;44.12
45350;BME280;31086;51.702;-1.106;2022-08-01T12:27:10;101135.86;;;26.15;43.20
45350;BME280;31086;51.702;-1.106;2022-08-01T12:29:39;101127.38;;;26.72;42.09
45350;BME280;31086;51.702;-1.106;2022-08-01T12:32:40;101122.27;;;26.50;42.52
45350;BME280;31086;51.702;-1.106;2022-08-01T12:35:10;101120.28;;;26.15;42.59
45350;BME280;31086;51.702;-1.106;2022-08-01T12:37:39;101113.17;;;26.70;42.01
45350;BME280;31086;51.702;-1.106;2022-08-01T12:40:14;101112.17;;;27.60;40.94
45350;BME280;31086;51.702;-1.106;2022-08-01T12:42:43;101115.44;;;27.02;41.13
45350;BME280;31086;51.702;-1.106;2022-08-01T12:45:13;101111.76;;;27.61;40.30
45350;BME280;31086;51.702;-1.106;2022-08-01T12:47:41;101108.65;;;25.32;42.21
45350;BME280;31086;51.702;-1.106;2022-08-01T12:50:12;101105.65;;;26.66;41.75
45350;BME280;31086;51.702;-1.106;2022-08-01T12:52:41;101107.86;;;26.84;41.18
45350;BME280;31086;51.702;-1.106;2022-08-01T12:55:11;101108.95;;;27.94;40.79